createdAt,value
2017-05-19T00:01:09.531Z,99.99
2017-05-19T00:02:31.747Z,99.99
2017-05-19T00:03:53.664Z,99.99
2017-05-19T00:05:15.870Z,99.99
2017-05-19T00:06:38.031Z,99.99
2017-05-19T00:07:59.538Z,99.99
2017-05-19T00:09:21.048Z,99.99
2017-05-19T00:10:42.906Z,99.99
2017-05-19T00:12:04.771Z,99.99
2017-05-19T00:13:26.590Z,99.99
2017-05-19T00:14:47.471Z,99.99
2017-05-19T00:16:09.619Z,99.99
2017-05-19T00:17:31.771Z,99.99
2017-05-19T00:18:53.591Z,99.99
2017-05-19T00:20:15.497Z,99.99
2017-05-19T00:21:37.331Z,99.99
2017-05-19T00:22:58.881Z,99.99
2017-05-19T00:24:20.713Z,99.99
2017-05-19T00:25:42.872Z,99.99
2017-05-19T00:27:05.442Z,99.99
2017-05-19T00:28:26.968Z,99.99
2017-05-19T00:29:49.134Z,99.99
2017-05-19T00:31:10.761Z,99.99
2017-05-19T00:32:32.952Z,99.99
2017-05-19T00:33:54.319Z,99.99
2017-05-19T00:35:16.522Z,99.99
2017-05-19T00:36:38.649Z,99.99
2017-05-19T00:38:00.842Z,99.99
2017-05-19T00:39:23.049Z,99.99
2017-05-19T00:40:45.239Z,99.99
2017-05-19T00:42:06.848Z,99.99
2017-05-19T00:43:29.257Z,99.99
2017-05-19T00:44:51.781Z,99.99
2017-05-19T00:46:13.389Z,99.99
2017-05-19T00:47:35.294Z,99.99
2017-05-19T00:48:56.589Z,99.99
2017-05-19T00:50:18.100Z,99.99
2017-05-19T00:51:40.248Z,99.99
2017-05-19T00:53:01.451Z,99.99
2017-05-19T00:54:23.591Z,99.99
2017-05-19T00:55:45.166Z,99.99
2017-05-19T00:57:07.329Z,99.99
2017-05-19T00:58:29.519Z,99.99
2017-05-19T00:59:52.181Z,99.99
2017-05-19T01:01:14.390Z,99.99
2017-05-19T01:02:36.560Z,99.99
2017-05-19T01:03:58.896Z,99.99
2017-05-19T01:05:20.551Z,99.99
2017-05-19T01:06:43.015Z,99.99
2017-05-19T01:08:04.536Z,99.99
2017-05-19T01:09:26.757Z,99.99
2017-05-19T01:10:48.988Z,99.99
2017-05-19T01:12:11.228Z,99.99
2017-05-19T01:13:33.356Z,99.99
2017-05-19T01:14:55.342Z,99.99
2017-05-19T01:16:17.177Z,99.99
2017-05-19T01:17:39.659Z,99.99
2017-05-19T01:19:00.901Z,99.99
2017-05-19T01:20:22.724Z,99.99
2017-05-19T01:21:44.572Z,99.99
2017-05-19T01:23:06.410Z,99.99
2017-05-19T01:24:27.958Z,99.99
2017-05-19T01:25:50.427Z,99.99
2017-05-19T01:27:12.198Z,99.99
2017-05-19T01:28:34.033Z,99.99
2017-05-19T01:29:55.551Z,99.99
2017-05-19T01:31:17.073Z,99.99
2017-05-19T01:32:39.522Z,99.99
2017-05-19T01:34:01.426Z,99.99
2017-05-19T01:35:23.591Z,99.99
2017-05-19T01:36:45.792Z,99.99
2017-05-19T01:38:08.341Z,99.99
2017-05-19T01:39:30.170Z,99.99
2017-05-19T01:40:52.307Z,99.99
2017-05-19T01:42:13.814Z,99.99
2017-05-19T01:43:35.971Z,99.99
2017-05-19T01:44:57.799Z,99.99
2017-05-19T01:46:19.926Z,99.99
2017-05-19T01:47:42.071Z,99.99
2017-05-19T01:49:04.565Z,99.99
2017-05-19T01:50:26.394Z,99.99
2017-05-19T01:51:47.276Z,99.99
2017-05-19T01:53:08.466Z,99.99
2017-05-19T01:54:29.967Z,99.99
2017-05-19T01:55:51.803Z,99.99
2017-05-19T01:57:13.392Z,99.99
2017-05-19T01:58:35.220Z,99.99
2017-05-19T01:59:57.440Z,99.99
2017-05-19T02:01:19.579Z,99.99
2017-05-19T02:02:41.450Z,99.99
2017-05-19T02:04:02.991Z,99.99
2017-05-19T02:05:25.110Z,99.99
2017-05-19T02:06:46.620Z,99.99
2017-05-19T02:08:08.456Z,99.99
2017-05-19T02:09:30.291Z,99.99
2017-05-19T02:10:53.050Z,99.99
2017-05-19T02:12:14.901Z,99.99
2017-05-19T02:13:36.741Z,99.99
2017-05-19T02:14:58.270Z,99.99
2017-05-19T02:16:19.734Z,99.99
2017-05-19T02:17:41.630Z,99.99
2017-05-19T02:19:03.145Z,99.99
2017-05-19T02:20:25.647Z,99.99
2017-05-19T02:21:48.102Z,99.99
2017-05-19T02:23:10.252Z,99.99
2017-05-19T02:24:32.496Z,99.99
2017-05-19T02:25:54.651Z,99.99
2017-05-19T02:27:16.702Z,99.99
2017-05-19T02:28:38.529Z,99.99
2017-05-19T02:30:00.669Z,99.99
2017-05-19T02:31:22.487Z,99.99
2017-05-19T02:32:44.012Z,99.99
2017-05-19T02:34:06.158Z,99.99
2017-05-19T02:35:28.331Z,99.99
2017-05-19T02:36:50.533Z,99.99
2017-05-19T02:38:12.628Z,99.99
2017-05-19T02:39:34.787Z,99.99
2017-05-19T02:40:56.689Z,99.99
2017-05-19T02:42:18.888Z,99.99
2017-05-19T02:43:40.972Z,99.99
2017-05-19T02:45:03.228Z,99.99
2017-05-19T02:46:25.035Z,99.99
2017-05-19T02:47:46.241Z,99.99
2017-05-19T02:49:07.693Z,99.99
2017-05-19T02:50:29.892Z,99.99
2017-05-19T02:51:51.471Z,99.99
2017-05-19T02:53:13.302Z,99.99
2017-05-19T02:54:35.807Z,99.99
2017-05-19T02:55:57.649Z,99.99
2017-05-19T02:57:20.124Z,99.99
2017-05-19T02:58:42.291Z,99.99
2017-05-19T03:00:04.267Z,99.99
2017-05-19T03:01:26.831Z,99.99
2017-05-19T03:02:48.341Z,99.99
2017-05-19T03:04:10.196Z,99.99
2017-05-19T03:05:32.380Z,99.99
2017-05-19T03:06:54.518Z,99.99
2017-05-19T03:08:16.695Z,99.99
2017-05-19T03:09:37.894Z,99.99
2017-05-19T03:11:00.115Z,99.99
2017-05-19T03:12:21.440Z,99.99
2017-05-19T03:13:42.328Z,99.99
2017-05-19T03:15:03.297Z,99.99
2017-05-19T03:16:25.424Z,99.99
2017-05-19T03:17:46.623Z,99.99
2017-05-19T03:19:07.834Z,99.99
2017-05-19T03:20:29.687Z,99.99
2017-05-19T03:21:51.880Z,99.99
2017-05-19T03:23:13.186Z,99.99
2017-05-19T03:24:35.405Z,99.99
2017-05-19T03:25:57.548Z,99.99
2017-05-19T03:27:19.848Z,99.99
2017-05-19T03:28:42.017Z,99.99
2017-05-19T03:30:03.867Z,99.99
2017-05-19T03:31:26.022Z,99.99
2017-05-19T03:32:48.446Z,99.99
2017-05-19T03:34:09.950Z,99.99
2017-05-19T03:35:31.510Z,99.99
2017-05-19T03:36:53.441Z,99.99
2017-05-19T03:38:15.568Z,99.99
2017-05-19T03:39:37.727Z,99.99
2017-05-19T03:40:59.656Z,99.99
2017-05-19T03:42:21.564Z,99.99
2017-05-19T03:43:43.330Z,99.99
2017-05-19T03:45:05.541Z,99.99
2017-05-19T03:46:27.720Z,99.99
2017-05-19T03:47:48.908Z,99.99
2017-05-19T03:49:11.153Z,99.99
2017-05-19T03:50:32.681Z,99.99
2017-05-19T03:51:54.199Z,99.99
2017-05-19T03:53:15.730Z,99.99
2017-05-19T03:54:37.910Z,99.99
2017-05-19T03:56:00.059Z,99.99
2017-05-19T03:57:22.506Z,99.99
2017-05-19T03:58:44.331Z,99.99
2017-05-19T04:00:07.282Z,99.99
2017-05-19T04:01:29.445Z,99.99
2017-05-19T04:02:51.280Z,99.99
2017-05-19T04:04:12.810Z,99.99
2017-05-19T04:05:35.299Z,99.99
2017-05-19T04:06:56.826Z,99.99
2017-05-19T04:08:18.640Z,99.99
2017-05-19T04:09:40.956Z,99.99
2017-05-19T04:11:03.537Z,99.99
2017-05-19T04:12:25.705Z,99.99
2017-05-19T04:13:47.556Z,99.99
2017-05-19T04:15:09.742Z,99.99
2017-05-19T04:16:32.481Z,99.99
2017-05-19T04:17:54.700Z,99.99
2017-05-19T04:19:16.220Z,99.99
2017-05-19T04:20:38.390Z,99.99
2017-05-19T04:22:01.213Z,99.99
2017-05-19T04:23:22.726Z,99.99
2017-05-19T04:24:44.910Z,99.99
2017-05-19T04:26:07.127Z,99.99
2017-05-19T04:27:29.486Z,99.99
2017-05-19T04:28:51.011Z,99.99
2017-05-19T04:30:12.533Z,99.99
2017-05-19T04:31:34.680Z,99.99
2017-05-19T04:32:56.550Z,99.99
2017-05-19T04:34:18.732Z,99.99
2017-05-19T04:35:40.582Z,99.99
2017-05-19T04:37:02.409Z,99.99
2017-05-19T04:38:24.230Z,99.99
2017-05-19T04:39:45.909Z,99.99
2017-05-19T04:41:08.077Z,99.99
2017-05-19T04:42:29.934Z,99.99
2017-05-19T04:43:52.036Z,99.99
2017-05-19T04:45:13.884Z,99.99
2017-05-19T04:46:35.100Z,99.99
2017-05-19T04:47:57.594Z,99.99
2017-05-19T04:49:20.369Z,99.99
2017-05-19T04:50:42.209Z,99.99
2017-05-19T04:52:04.450Z,99.99
2017-05-19T04:53:26.391Z,99.99
2017-05-19T04:54:48.531Z,99.99
2017-05-19T04:56:11.040Z,99.99
2017-05-19T04:57:32.918Z,99.99
2017-05-19T04:58:54.758Z,99.99
2017-05-19T05:00:17.252Z,99.99
2017-05-19T05:01:39.733Z,99.99
2017-05-19T05:03:01.881Z,99.99
2017-05-19T05:04:24.023Z,99.99
2017-05-19T05:05:46.162Z,99.99
2017-05-19T05:07:08.468Z,99.99
2017-05-19T05:08:30.090Z,99.99
2017-05-19T05:09:51.633Z,99.99
2017-05-19T05:11:14.052Z,99.99
2017-05-19T05:12:36.000Z,99.99
2017-05-19T05:13:57.573Z,99.99
2017-05-19T05:15:19.729Z,99.99
2017-05-19T05:16:42.515Z,99.99
2017-05-19T05:18:04.350Z,99.99
2017-05-19T05:19:26.181Z,99.99
2017-05-19T05:20:48.349Z,99.99
2017-05-19T05:22:10.808Z,99.99
2017-05-19T05:23:33.000Z,99.99
2017-05-19T05:24:55.602Z,99.99
2017-05-19T05:26:18.065Z,99.99
2017-05-19T05:27:40.214Z,99.99
2017-05-19T05:29:02.381Z,99.99
2017-05-19T05:30:24.238Z,99.99
2017-05-19T05:31:45.861Z,99.99
2017-05-19T05:33:08.282Z,99.99
2017-05-19T05:34:30.118Z,99.99
2017-05-19T05:35:51.639Z,99.99
2017-05-19T05:37:13.472Z,99.99
2017-05-19T05:38:35.600Z,99.99
2017-05-19T05:39:57.176Z,99.99
2017-05-19T05:41:19.053Z,99.99
2017-05-19T05:42:41.219Z,99.99
2017-05-19T05:44:03.039Z,99.99
2017-05-19T05:45:25.514Z,99.99
2017-05-19T05:46:47.035Z,99.99
2017-05-19T05:48:09.522Z,99.99
2017-05-19T05:49:31.981Z,99.99
2017-05-19T05:50:53.810Z,99.99
2017-05-19T05:52:15.020Z,99.99
2017-05-19T05:53:37.192Z,99.99
2017-05-19T05:54:59.642Z,99.99
2017-05-19T05:56:21.525Z,99.99
2017-05-19T05:57:43.728Z,99.99
2017-05-19T05:59:06.185Z,99.99
2017-05-19T06:00:28.719Z,99.99
2017-05-19T06:01:50.550Z,99.99
2017-05-19T06:03:13.022Z,99.99
2017-05-19T06:04:35.490Z,99.99
2017-05-19T06:05:57.588Z,99.99
2017-05-19T06:07:19.171Z,99.99
2017-05-19T06:08:41.638Z,99.99
2017-05-19T06:10:03.791Z,99.99
2017-05-19T06:11:26.019Z,99.99
2017-05-19T06:12:47.383Z,99.99
2017-05-19T06:14:09.856Z,99.99
2017-05-19T06:15:31.080Z,99.99
2017-05-19T06:16:52.931Z,99.99
2017-05-19T06:18:15.519Z,99.99
2017-05-19T06:19:37.672Z,99.99
2017-05-19T06:20:59.887Z,99.99
2017-05-19T06:22:22.517Z,99.99
2017-05-19T06:23:44.041Z,99.99
2017-05-19T06:25:05.970Z,99.99
2017-05-19T06:26:28.462Z,99.99
2017-05-19T06:27:50.610Z,99.99
2017-05-19T06:29:12.479Z,99.99
2017-05-19T06:30:34.389Z,99.99
2017-05-19T06:31:55.928Z,99.99
2017-05-19T06:33:17.873Z,99.99
2017-05-19T06:34:40.358Z,99.99
2017-05-19T06:36:01.575Z,99.99
2017-05-19T06:37:23.747Z,99.99
2017-05-19T06:38:46.187Z,99.99
2017-05-19T06:40:08.348Z,99.99
2017-05-19T06:41:30.188Z,99.99
2017-05-19T06:42:52.411Z,99.99
2017-05-19T06:44:14.203Z,99.99
2017-05-19T06:45:36.664Z,99.99
2017-05-19T06:46:58.509Z,99.99
2017-05-19T06:48:20.410Z,99.99
2017-05-19T06:49:42.505Z,99.99
2017-05-19T06:51:04.042Z,99.99
2017-05-19T06:52:25.589Z,99.99
2017-05-19T06:53:47.431Z,99.99
2017-05-19T06:55:09.900Z,99.99
2017-05-19T06:56:31.724Z,99.99
2017-05-19T06:57:53.574Z,99.99
2017-05-19T06:59:15.427Z,99.99
2017-05-19T07:00:38.284Z,99.99
2017-05-19T07:02:00.463Z,99.99
2017-05-19T07:03:22.935Z,99.99
2017-05-19T07:04:44.881Z,99.99
2017-05-19T07:06:07.710Z,99.99
2017-05-19T07:07:29.651Z,99.99
2017-05-19T07:08:51.254Z,99.99
2017-05-19T07:10:13.744Z,99.99
2017-05-19T07:11:35.921Z,99.45
2017-05-19T07:12:57.500Z,99.99
2017-05-19T07:14:19.977Z,96.22
2017-05-19T07:15:42.539Z,93.57
2017-05-19T07:17:04.736Z,92.6
2017-05-19T07:18:26.965Z,88.21
2017-05-19T07:19:49.473Z,88.64
2017-05-19T07:21:11.310Z,88.15
2017-05-19T07:22:33.162Z,87.48
2017-05-19T07:23:55.023Z,87.96
2017-05-19T07:25:16.570Z,86.57
2017-05-19T07:26:38.719Z,86.07
2017-05-19T07:28:00.813Z,84.48
2017-05-19T07:29:23.269Z,85.16
2017-05-19T07:30:45.436Z,85.26
2017-05-19T07:32:07.640Z,85.45
2017-05-19T07:33:30.199Z,83.04
2017-05-19T07:34:52.366Z,78.58
2017-05-19T07:36:14.535Z,73.53
2017-05-19T07:37:36.401Z,65.75
2017-05-19T07:38:59.140Z,59.05
2017-05-19T07:40:21.312Z,57.86
2017-05-19T07:41:43.191Z,56.84
2017-05-19T07:43:05.042Z,54.72
2017-05-19T07:44:27.597Z,54.38
2017-05-19T07:45:49.228Z,52.85
2017-05-19T07:47:10.762Z,48.34
2017-05-19T07:48:32.920Z,44.32
2017-05-19T07:49:55.192Z,41.76
2017-05-19T07:51:17.455Z,39.47
2017-05-19T07:52:38.748Z,38.42
2017-05-19T07:54:01.288Z,38.03
2017-05-19T07:55:23.742Z,37.82
2017-05-19T07:56:45.928Z,37.84
2017-05-19T07:58:07.877Z,39.88
2017-05-19T07:59:30.039Z,41.17
2017-05-19T08:00:52.222Z,43.58
2017-05-19T08:02:14.728Z,43.73
2017-05-19T08:03:36.582Z,44.91
2017-05-19T08:04:59.292Z,44.42
2017-05-19T08:06:21.618Z,46.16
2017-05-19T08:07:43.819Z,46.7
2017-05-19T08:09:05.977Z,49.12
2017-05-19T08:10:28.149Z,49.78
2017-05-19T08:11:50.211Z,50.34
2017-05-19T08:13:12.759Z,50.9
2017-05-19T08:14:35.001Z,51.85
2017-05-19T08:15:56.230Z,53.67
2017-05-19T08:17:18.332Z,54.33
2017-05-19T08:18:40.836Z,56.05
2017-05-19T08:20:02.460Z,57.32
2017-05-19T08:21:24.711Z,57.17
2017-05-19T08:22:46.920Z,59.11
2017-05-19T08:24:08.850Z,60.22
2017-05-19T08:25:30.710Z,61.74
2017-05-19T08:26:52.678Z,62.42
2017-05-19T08:28:15.580Z,62.91
2017-05-19T08:29:37.107Z,63.2
2017-05-19T08:30:58.956Z,62.91
2017-05-19T08:32:21.109Z,62.35
2017-05-19T08:33:42.290Z,61.77
2017-05-19T08:35:03.823Z,62.07
2017-05-19T08:36:25.797Z,62.32
2017-05-19T08:37:48.039Z,61.55
2017-05-19T08:39:10.315Z,62.35
2017-05-19T08:40:32.474Z,60.77
2017-05-19T08:41:54.951Z,62.04
2017-05-19T08:43:17.160Z,60.77
2017-05-19T08:44:39.002Z,61.35
2017-05-19T08:46:01.271Z,62.32
2017-05-19T08:47:23.167Z,61.65
2017-05-19T08:48:45.471Z,61.35
2017-05-19T08:50:07.301Z,60.87
2017-05-19T08:51:29.474Z,61.32
2017-05-19T08:52:51.189Z,62.01
2017-05-19T08:54:12.398Z,62.88
2017-05-19T08:55:34.229Z,63.17
2017-05-19T08:56:56.210Z,61.71
2017-05-19T08:58:17.780Z,61.32
2017-05-19T08:59:39.657Z,61.13
2017-05-19T09:01:02.278Z,61.04
2017-05-19T09:02:24.206Z,59.97
2017-05-19T09:03:46.742Z,60.28
2017-05-19T09:05:08.316Z,61.52
2017-05-19T09:06:30.159Z,61.32
2017-05-19T09:07:52.008Z,61.71
2017-05-19T09:09:13.862Z,61.32
2017-05-19T09:10:36.008Z,61.29
2017-05-19T09:11:58.209Z,61.39
2017-05-19T09:13:20.428Z,61.78
2017-05-19T09:14:42.577Z,60.23
2017-05-19T09:16:04.737Z,60.13
2017-05-19T09:17:26.538Z,60.91
2017-05-19T09:18:48.732Z,61
2017-05-19T09:20:11.031Z,60.23
2017-05-19T09:21:33.540Z,60.81
2017-05-19T09:22:55.668Z,61.49
2017-05-19T09:24:17.993Z,60.61
2017-05-19T09:25:40.660Z,61.1
2017-05-19T09:27:01.883Z,60.81
2017-05-19T09:28:23.815Z,61.49
2017-05-19T09:29:46.061Z,60.91
2017-05-19T09:31:08.338Z,61.39
2017-05-19T09:32:30.521Z,60.81
2017-05-19T09:33:52.648Z,61.36
2017-05-19T09:35:14.830Z,60.88
2017-05-19T09:36:36.779Z,61.72
2017-05-19T09:37:58.975Z,61.88
2017-05-19T09:39:20.861Z,62.85
2017-05-19T09:40:42.538Z,64.11
2017-05-19T09:42:04.379Z,63.04
2017-05-19T09:43:26.268Z,65.75
2017-05-19T09:44:49.219Z,66.2
2017-05-19T09:46:11.398Z,64.95
2017-05-19T09:47:33.244Z,66.08
2017-05-19T09:48:55.463Z,66.91
2017-05-19T09:50:17.578Z,67.01
2017-05-19T09:51:39.199Z,67.4
2017-05-19T09:53:01.118Z,66.91
2017-05-19T09:54:22.979Z,66.05
2017-05-19T09:55:45.170Z,66.63
2017-05-19T09:57:07.006Z,67.49
2017-05-19T09:58:29.241Z,67.21
2017-05-19T09:59:51.110Z,67.75
2017-05-19T10:01:13.319Z,67.88
2017-05-19T10:02:35.301Z,67.4
2017-05-19T10:03:56.816Z,67.49
2017-05-19T10:05:18.029Z,67.21
2017-05-19T10:06:40.142Z,67.3
2017-05-19T10:08:02.001Z,66.91
2017-05-19T10:09:24.178Z,67.91
2017-05-19T10:10:46.352Z,67.53
2017-05-19T10:12:09.087Z,67.4
2017-05-19T10:13:31.401Z,66.66
2017-05-19T10:14:53.340Z,66.75
2017-05-19T10:16:14.950Z,66.85
2017-05-19T10:17:37.871Z,67.82
2017-05-19T10:18:59.720Z,66.27
2017-05-19T10:20:21.877Z,66.69
2017-05-19T10:21:44.115Z,63.62
2017-05-19T10:23:05.942Z,62.95
2017-05-19T10:24:27.838Z,63.07
2017-05-19T10:25:49.694Z,64.79
2017-05-19T10:27:11.550Z,65.27
2017-05-19T10:28:34.454Z,65.47
2017-05-19T10:29:56.932Z,64.98
2017-05-19T10:31:18.469Z,64.92
2017-05-19T10:32:39.372Z,64.07
2017-05-19T10:34:01.267Z,63.49
2017-05-19T10:35:23.200Z,64.01
2017-05-19T10:36:45.364Z,64.56
2017-05-19T10:38:07.550Z,64.59
2017-05-19T10:39:30.027Z,63.82
2017-05-19T10:40:52.601Z,63.13
2017-05-19T10:42:14.764Z,61.68
2017-05-19T10:43:36.665Z,61.46
2017-05-19T10:44:58.777Z,60.88
2017-05-19T10:46:20.629Z,61.07
2017-05-19T10:47:43.100Z,61.75
2017-05-19T10:49:05.669Z,62.52
2017-05-19T10:50:27.126Z,62.98
2017-05-19T10:51:48.668Z,64.2
2017-05-19T10:53:10.820Z,64.69
2017-05-19T10:54:32.345Z,63.24
2017-05-19T10:55:54.812Z,64.2
2017-05-19T10:57:16.661Z,65.47
2017-05-19T10:58:39.149Z,65.85
2017-05-19T11:00:01.035Z,65.82
2017-05-19T11:01:23.274Z,65.14
2017-05-19T11:02:45.596Z,66.6
2017-05-19T11:04:07.787Z,66.56
2017-05-19T11:05:29.957Z,67.14
2017-05-19T11:06:52.101Z,67.82
2017-05-19T11:08:14.309Z,66.91
2017-05-19T11:09:36.475Z,66.91
2017-05-19T11:10:58.341Z,68.24
2017-05-19T11:12:20.886Z,68.52
2017-05-19T11:13:43.479Z,68.62
2017-05-19T11:15:05.980Z,69.59
2017-05-19T11:16:28.138Z,70.23
2017-05-19T11:17:50.020Z,69.26
2017-05-19T11:19:11.535Z,68.91
2017-05-19T11:20:33.806Z,68.72
2017-05-19T11:21:55.648Z,69.33
2017-05-19T11:23:17.541Z,69.04
2017-05-19T11:24:40.026Z,68.75
2017-05-19T11:26:02.248Z,67.21
2017-05-19T11:27:24.426Z,66.08
2017-05-19T11:28:46.543Z,64.59
2017-05-19T11:30:08.772Z,63.85
2017-05-19T11:31:31.250Z,62.52
2017-05-19T11:32:53.439Z,61.62
2017-05-19T11:34:15.935Z,60.97
2017-05-19T11:35:38.180Z,61.29
2017-05-19T11:37:00.770Z,61
2017-05-19T11:38:23.280Z,60.25
2017-05-19T11:39:45.704Z,60.16
2017-05-19T11:41:07.893Z,58.03
2017-05-19T11:42:30.057Z,57.67
2017-05-19T11:43:51.663Z,57.08
2017-05-19T11:45:14.489Z,57.08
2017-05-19T11:46:36.333Z,59.12
2017-05-19T11:47:58.828Z,61.04
2017-05-19T11:49:21.009Z,61.85
2017-05-19T11:50:43.506Z,64.4
2017-05-19T11:52:05.090Z,66.5
2017-05-19T11:53:26.928Z,69.24
2017-05-19T11:54:48.493Z,71.91
2017-05-19T11:56:10.947Z,72.94
2017-05-19T11:57:33.285Z,73.09
2017-05-19T11:58:55.851Z,73.22
2017-05-19T12:00:18.345Z,74.58
2017-05-19T12:01:40.958Z,76.09
2017-05-19T12:03:02.822Z,77.92
2017-05-19T12:04:25.001Z,78.23
2017-05-19T12:05:47.184Z,79.93
2017-05-19T12:07:09.621Z,81.72
2017-05-19T12:08:31.817Z,83.45
2017-05-19T12:09:54.081Z,82.29
2017-05-19T12:11:15.948Z,81.43
2017-05-19T12:12:38.129Z,82.39
2017-05-19T12:14:00.347Z,82.2
2017-05-19T12:15:22.308Z,81.47
2017-05-19T12:16:44.776Z,78.86
2017-05-19T12:18:07.300Z,78.13
2017-05-19T12:19:29.790Z,78.23
2017-05-19T12:20:51.650Z,79.06
2017-05-19T12:22:13.809Z,79.83
2017-05-19T12:23:36.770Z,79.16
2017-05-19T12:24:58.949Z,80.02
2017-05-19T12:26:21.230Z,77.23
2017-05-19T12:27:43.419Z,76.2
2017-05-19T12:29:05.340Z,75.43
2017-05-19T12:30:27.497Z,76.26
2017-05-19T12:31:49.040Z,76.65
2017-05-19T12:33:10.890Z,76.55
2017-05-19T12:34:33.688Z,76.45
2017-05-19T12:35:56.216Z,75.97
2017-05-19T12:37:18.722Z,75.97
2017-05-19T12:38:40.869Z,76.26
2017-05-19T12:40:03.348Z,76.45
2017-05-19T12:41:25.258Z,75.01
2017-05-19T12:42:47.489Z,75.1
2017-05-19T12:44:09.317Z,76.07
2017-05-19T12:45:31.729Z,77.09
2017-05-19T12:46:53.590Z,79.46
2017-05-19T12:48:15.797Z,81.16
2017-05-19T12:49:37.410Z,82.21
2017-05-19T12:50:59.558Z,82.31
2017-05-19T12:52:20.446Z,82.6
2017-05-19T12:53:42.312Z,82.31
2017-05-19T12:55:04.521Z,82.21
2017-05-19T12:56:26.997Z,82.21
2017-05-19T12:57:48.208Z,82.79
2017-05-19T12:59:10.416Z,83.52
2017-05-19T13:00:31.944Z,85.16
2017-05-19T13:01:54.360Z,85.74
2017-05-19T13:03:16.318Z,86.12
2017-05-19T13:04:38.624Z,88.87
2017-05-19T13:06:00.291Z,88.77
2017-05-19T13:07:22.706Z,88.1
2017-05-19T13:08:44.373Z,85.6
2017-05-19T13:10:06.710Z,84.25
2017-05-19T13:11:28.549Z,84.98
2017-05-19T13:12:51.353Z,86.32
2017-05-19T13:14:13.209Z,87.48
2017-05-19T13:15:35.402Z,88.92
2017-05-19T13:16:58.003Z,89.01
2017-05-19T13:18:20.535Z,88.73
2017-05-19T13:19:42.393Z,89.01
2017-05-19T13:21:04.993Z,88.53
2017-05-19T13:22:27.485Z,87.86
2017-05-19T13:23:49.942Z,86.13
2017-05-19T13:25:11.484Z,85.75
2017-05-19T13:26:33.972Z,84.69
2017-05-19T13:27:56.360Z,84.88
2017-05-19T13:29:19.140Z,82.76
2017-05-19T13:30:41.403Z,82.48
2017-05-19T13:32:03.959Z,82.96
2017-05-19T13:33:26.159Z,82.09
2017-05-19T13:34:47.996Z,82.76
2017-05-19T13:36:10.497Z,83.83
2017-05-19T13:37:32.984Z,84.88
2017-05-19T13:38:55.557Z,84.01
2017-05-19T13:40:18.356Z,83.83
2017-05-19T13:41:39.930Z,82.96
2017-05-19T13:43:01.811Z,82.86
2017-05-19T13:44:24.319Z,81.13
2017-05-19T13:45:46.792Z,82.76
2017-05-19T13:47:08.995Z,81.23
2017-05-19T13:48:31.149Z,81.42
2017-05-19T13:49:53.339Z,80.69
2017-05-19T13:51:15.434Z,79.73
2017-05-19T13:52:37.952Z,78.77
2017-05-19T13:53:59.519Z,78.19
2017-05-19T13:55:22.037Z,77.33
2017-05-19T13:56:44.255Z,78.96
2017-05-19T13:58:06.728Z,80.02
2017-05-19T13:59:28.904Z,80.11
2017-05-19T14:00:51.456Z,80.79
2017-05-19T14:02:13.599Z,80.21
2017-05-19T14:03:35.819Z,79.4
2017-05-19T14:04:57.769Z,78.73
2017-05-19T14:06:20.058Z,78.73
2017-05-19T14:07:42.600Z,79.88
2017-05-19T14:09:04.492Z,79.79
2017-05-19T14:10:27.940Z,81.13
2017-05-19T14:11:51.118Z,82.05
2017-05-19T14:13:13.569Z,83.3
2017-05-19T14:14:35.102Z,82.92
2017-05-19T14:15:56.945Z,82.63
2017-05-19T14:17:19.178Z,83.4
2017-05-19T14:18:41.371Z,83.78
2017-05-19T14:20:03.549Z,84.03
2017-05-19T14:21:25.417Z,84.8
2017-05-19T14:22:48.062Z,85.57
2017-05-19T14:24:10.790Z,85.28
2017-05-19T14:25:33.076Z,84.99
2017-05-19T14:26:54.939Z,85.57
2017-05-19T14:28:16.807Z,85.95
2017-05-19T14:29:38.652Z,86.72
2017-05-19T14:31:01.261Z,86.68
2017-05-19T14:32:23.460Z,86.87
2017-05-19T14:33:45.646Z,86.87
2017-05-19T14:35:07.743Z,86.19
2017-05-19T14:36:29.938Z,86.58
2017-05-19T14:37:52.129Z,86.48
2017-05-19T14:39:14.629Z,85.42
2017-05-19T14:40:36.230Z,85.04
2017-05-19T14:41:58.177Z,84.75
2017-05-19T14:43:20.409Z,84.75
2017-05-19T14:44:42.968Z,85.33
2017-05-19T14:46:05.484Z,85.33
2017-05-19T14:47:27.422Z,85.67
2017-05-19T14:48:49.278Z,86.05
2017-05-19T14:50:10.802Z,86.63
2017-05-19T14:51:33.261Z,87.11
2017-05-19T14:52:55.469Z,87.88
2017-05-19T14:54:17.398Z,87.68
2017-05-19T14:55:39.607Z,88.84
2017-05-19T14:57:01.728Z,88.93
2017-05-19T14:58:23.887Z,88.26
2017-05-19T14:59:46.037Z,88.7
2017-05-19T15:01:08.549Z,88.93
2017-05-19T15:02:30.424Z,89.32
2017-05-19T15:03:52.301Z,89.89
2017-05-19T15:05:14.479Z,90.08
2017-05-19T15:06:36.828Z,90.23
2017-05-19T15:07:58.646Z,90.42
2017-05-19T15:09:20.826Z,91.67
2017-05-19T15:10:42.729Z,91.57
2017-05-19T15:12:04.929Z,91.96
2017-05-19T15:13:27.411Z,91.38
2017-05-19T15:14:49.579Z,91.38
2017-05-19T15:16:11.511Z,91.96
2017-05-19T15:17:33.673Z,91.77
2017-05-19T15:18:56.526Z,91.28
2017-05-19T15:20:17.541Z,92.05
2017-05-19T15:21:39.779Z,91.96
2017-05-19T15:23:01.805Z,90.81
2017-05-19T15:24:24.009Z,90.81
2017-05-19T15:25:46.253Z,89.75
2017-05-19T15:27:08.476Z,90.61
2017-05-19T15:28:30.783Z,90.14
2017-05-19T15:29:53.293Z,89.37
2017-05-19T15:31:15.881Z,89.27
2017-05-19T15:32:38.225Z,88.6
2017-05-19T15:34:00.722Z,88.22
2017-05-19T15:35:22.916Z,88.51
2017-05-19T15:36:45.378Z,87.4
2017-05-19T15:38:06.919Z,87.64
2017-05-19T15:39:29.080Z,87.84
2017-05-19T15:40:51.259Z,88.51
2017-05-19T15:42:13.521Z,88.02
2017-05-19T15:43:36.109Z,88.6
2017-05-19T15:44:58.425Z,89.27
2017-05-19T15:46:20.596Z,87.64
2017-05-19T15:47:42.451Z,86.68
2017-05-19T15:49:04.792Z,86.93
2017-05-19T15:50:27.416Z,85.3
2017-05-19T15:51:50.350Z,84.44
2017-05-19T15:53:12.650Z,83
2017-05-19T15:54:34.833Z,83.58
2017-05-19T15:55:57.353Z,82.9
2017-05-19T15:57:19.306Z,83.19
2017-05-19T15:58:41.884Z,82.76
2017-05-19T16:00:04.573Z,83.72
2017-05-19T16:01:26.573Z,84.39
2017-05-19T16:02:48.683Z,84.88
2017-05-19T16:04:10.858Z,85.16
2017-05-19T16:05:33.344Z,85.25
2017-05-19T16:06:55.980Z,85.93
2017-05-19T16:08:18.822Z,86.6
2017-05-19T16:09:41.005Z,86.31
2017-05-19T16:11:03.172Z,86.41
2017-05-19T16:12:25.742Z,87.84
2017-05-19T16:13:48.169Z,88.51
2017-05-19T16:15:10.660Z,88.9
2017-05-19T16:16:33.175Z,88.8
2017-05-19T16:17:55.692Z,88.61
2017-05-19T16:19:18.609Z,89.28
2017-05-19T16:20:40.787Z,88.95
2017-05-19T16:22:03.425Z,88.76
2017-05-19T16:23:25.953Z,89.52
2017-05-19T16:24:48.465Z,90
2017-05-19T16:26:10.974Z,90.58
2017-05-19T16:27:32.806Z,90.58
2017-05-19T16:28:54.368Z,91.92
2017-05-19T16:30:16.902Z,92.21
2017-05-19T16:31:39.067Z,90.96
2017-05-19T16:33:01.515Z,91.34
2017-05-19T16:34:22.796Z,91.15
2017-05-19T16:35:45.540Z,91.25
2017-05-19T16:37:07.425Z,91.53
2017-05-19T16:38:29.274Z,91.82
2017-05-19T16:39:51.112Z,91.44
2017-05-19T16:41:13.009Z,92.83
2017-05-19T16:42:35.150Z,92.83
2017-05-19T16:43:57.832Z,93.4
2017-05-19T16:45:20.020Z,94.74
2017-05-19T16:46:42.593Z,96.75
2017-05-19T16:48:04.507Z,99.99
2017-05-19T16:49:27.219Z,99.99
2017-05-19T16:50:51.647Z,99.99
2017-05-19T16:52:14.479Z,99.99
2017-05-19T16:53:38.413Z,99.99
2017-05-19T16:55:01.619Z,99.99
2017-05-19T16:56:35.104Z,99.99
2017-05-19T16:57:59.325Z,99.99
2017-05-19T16:59:28.141Z,99.99
2017-05-19T17:00:50.326Z,99.99
2017-05-19T17:02:12.910Z,99.99
2017-05-19T17:03:35.936Z,99.99
2017-05-19T17:04:58.447Z,99.99
2017-05-19T17:06:23.806Z,99.99
2017-05-19T17:07:46.283Z,99.99
2017-05-19T17:09:08.792Z,99.99
2017-05-19T17:10:30.977Z,99.99
2017-05-19T17:11:53.163Z,99.99
2017-05-19T17:13:14.688Z,99.99
2017-05-19T17:14:37.193Z,99.99
2017-05-19T17:15:59.531Z,99.99
2017-05-19T17:17:21.405Z,99.99
2017-05-19T17:18:44.351Z,99.99
2017-05-19T17:20:06.544Z,99.99
2017-05-19T17:21:28.761Z,99.99
2017-05-19T17:22:51.250Z,99.99
2017-05-19T17:24:14.169Z,99.99
2017-05-19T17:25:36.049Z,99.99
2017-05-19T17:26:58.227Z,99.99
2017-05-19T17:28:20.483Z,99.99
2017-05-19T17:29:43.347Z,99.99
2017-05-19T17:31:05.618Z,99.99
2017-05-19T17:32:27.784Z,99.99
2017-05-19T17:33:49.628Z,99.99
2017-05-19T17:35:12.068Z,99.99
2017-05-19T17:36:33.912Z,99.99
2017-05-19T17:37:55.458Z,99.99
2017-05-19T17:39:17.779Z,99.99
2017-05-19T17:40:40.732Z,99.99